createdAt,value
2023-01-02T00:02:03.204Z,8.82
2023-01-02T00:06:06.905Z,11.20
2023-01-02T00:10:11.481Z,6.50
2023-01-02T00:14:14.861Z,13.10
2023-01-02T00:18:17.819Z,8.85
2023-01-02T00:22:20.721Z,6.93
2023-01-02T00:26:24.867Z,8.20
2023-01-02T00:30:31.090Z,13.63
2023-01-02T00:34:39.077Z,12.32
2023-01-02T00:38:42.047Z,13.75
2023-01-02T00:42:46.181Z,9.95
2023-01-02T00:46:50.152Z,5.72
2023-01-02T00:50:52.881Z,13.88
2023-01-02T00:54:56.252Z,9.95
2023-01-02T00:59:00.708Z,14.25
2023-01-02T01:03:03.714Z,11.48
2023-01-02T01:07:07.346Z,11.35
2023-01-02T01:11:13.146Z,15.98
2023-01-02T01:15:17.352Z,8.25
2023-01-02T01:19:20.382Z,11.88
2023-01-02T01:23:23.903Z,11.98
2023-01-02T01:27:26.783Z,7.13
2023-01-02T01:31:30.887Z,14.43
2023-01-02T01:35:34.665Z,10.45
2023-01-02T01:43:44.864Z,9.63
2023-01-02T01:47:52.748Z,6.63
2023-01-02T01:51:57.166Z,9.52
2023-01-02T01:56:03.256Z,12.48
2023-01-02T02:00:08.406Z,7.65
2023-01-02T02:04:12.967Z,11.20
2023-01-02T02:08:18.922Z,12.90
2023-01-02T02:12:27.692Z,8.95
2023-01-02T02:16:37.927Z,9.07
2023-01-02T02:25:01.958Z,5.55
2023-01-02T02:29:27.105Z,11.23
2023-01-02T02:33:39.278Z,7.38
2023-01-02T02:37:48.100Z,11.55
2023-01-02T02:41:58.453Z,9.80
2023-01-02T02:46:06.239Z,7.43
2023-01-02T02:50:13.321Z,11.43
2023-01-02T02:54:20.037Z,14.07
2023-01-02T02:58:23.854Z,10.07
2023-01-02T03:06:45.774Z,10.57
2023-01-02T03:10:53.204Z,14.27
2023-01-02T03:14:59.754Z,8.77
2023-01-02T03:19:06.291Z,9.27
2023-01-02T03:23:14.351Z,10.90
2023-01-02T03:27:22.036Z,11.27
2023-01-02T03:31:26.906Z,11.63
2023-01-02T03:35:34.483Z,11.73
2023-01-02T03:39:42.678Z,9.57
2023-01-02T03:43:52.972Z,11.80
2023-01-02T03:48:03.314Z,12.20
2023-01-02T03:52:06.372Z,11.00
2023-01-02T03:56:17.758Z,8.43
2023-01-02T04:00:21.711Z,12.95
2023-01-02T04:04:32.209Z,10.98
2023-01-02T04:08:38.772Z,13.52
2023-01-02T04:12:46.997Z,15.63
2023-01-02T04:16:51.025Z,12.88
2023-01-02T04:20:56.028Z,9.43
2023-01-02T04:25:03.315Z,11.00
2023-01-02T04:29:08.049Z,14.80
2023-01-02T04:33:11.845Z,8.80
2023-01-02T04:37:30.932Z,12.32
2023-01-02T04:41:35.255Z,18.50
2023-01-02T04:45:39.430Z,5.20
2023-01-02T04:49:42.134Z,10.48
2023-01-02T04:53:45.188Z,5.28
2023-01-02T04:57:48.192Z,14.88
2023-01-02T05:01:52.334Z,10.95
2023-01-02T05:06:01.501Z,11.93
2023-01-02T05:10:04.771Z,6.50
2023-01-02T05:14:08.087Z,13.82
2023-01-02T05:18:12.597Z,11.05
2023-01-02T05:22:32.912Z,6.85
2023-01-02T05:26:35.874Z,7.68
2023-01-02T05:30:39.198Z,11.30
2023-01-02T05:34:43.287Z,14.55
2023-01-02T05:38:46.189Z,16.30
2023-01-02T05:42:49.295Z,13.20
2023-01-02T05:46:52.471Z,8.13
2023-01-02T05:50:56.658Z,12.93
2023-01-02T05:54:59.765Z,9.63
2023-01-02T05:59:02.484Z,10.25
2023-01-02T06:03:05.382Z,10.55
2023-01-02T06:07:09.540Z,9.38
2023-01-02T06:11:12.652Z,11.30
2023-01-02T06:15:15.323Z,10.57
2023-01-02T06:19:18.045Z,12.23
2023-01-02T06:23:22.987Z,9.05
2023-01-02T06:27:25.669Z,18.88
2023-01-02T06:31:29.861Z,12.55
2023-01-02T06:35:33.073Z,12.82
2023-01-02T06:39:37.175Z,11.05
2023-01-02T06:43:44.117Z,14.38
2023-01-02T06:47:46.916Z,9.43
2023-01-02T06:51:50.063Z,7.22
2023-01-02T06:55:55.916Z,11.63
2023-01-02T06:59:58.714Z,10.82
2023-01-02T07:04:01.628Z,13.15
2023-01-02T07:08:04.620Z,14.10
2023-01-02T07:12:08.735Z,9.38
2023-01-02T07:16:13.273Z,13.48
2023-01-02T07:20:16.191Z,8.65
2023-01-02T07:24:18.860Z,9.43
2023-01-02T07:28:23.362Z,13.30
2023-01-02T07:32:27.711Z,16.77
2023-01-02T07:36:30.677Z,11.13
2023-01-02T07:40:33.611Z,15.23
2023-01-02T07:44:37.838Z,8.95
2023-01-02T07:48:40.680Z,15.60
2023-01-02T07:52:43.574Z,7.80
2023-01-02T07:56:46.779Z,9.82
2023-01-02T08:00:51.063Z,7.78
2023-01-02T08:04:53.742Z,15.10
2023-01-02T08:08:56.572Z,12.98
2023-01-02T08:12:59.489Z,14.02
2023-01-02T08:17:03.588Z,14.13
2023-01-02T08:21:06.882Z,13.13
2023-01-02T08:25:11.334Z,12.60
2023-01-02T08:29:14.298Z,9.77
2023-01-02T08:33:18.418Z,12.30
2023-01-02T08:37:21.763Z,9.23
2023-01-02T08:41:34.630Z,10.23
2023-01-02T08:45:37.379Z,10.57
2023-01-02T08:49:41.449Z,14.10
2023-01-02T08:53:44.398Z,14.35
2023-01-02T08:57:47.033Z,12.43
2023-01-02T09:01:49.808Z,14.10
2023-01-02T09:05:55.948Z,13.65
2023-01-02T09:09:58.659Z,12.98
2023-01-02T09:14:02.331Z,13.68
2023-01-02T09:18:05.078Z,12.02
2023-01-02T09:22:09.488Z,13.00
2023-01-02T09:26:13.247Z,12.00
2023-01-02T09:38:22.961Z,12.32
2023-01-02T09:42:25.825Z,14.20
2023-01-02T09:46:33.519Z,9.63
2023-01-02T09:50:36.927Z,10.38
2023-01-02T09:54:41.205Z,10.38
2023-01-02T09:58:49.162Z,15.68
2023-01-02T10:03:08.204Z,19.05
2023-01-02T10:07:14.927Z,14.18
2023-01-02T10:11:27.157Z,15.25
2023-01-02T10:15:30.751Z,12.70
2023-01-02T10:19:42.018Z,14.15
2023-01-02T10:23:48.575Z,11.18
2023-01-02T10:27:57.559Z,17.48
2023-01-02T10:32:01.866Z,11.85
2023-01-02T10:36:24.330Z,12.50
2023-01-02T10:44:39.981Z,16.98
2023-01-02T10:48:48.371Z,13.98
2023-01-02T10:52:59.760Z,14.25
2023-01-02T10:57:02.606Z,31.23
2023-01-02T11:01:08.791Z,16.25
2023-01-02T11:05:20.733Z,16.13
2023-01-02T11:09:32.280Z,15.20
2023-01-02T11:13:51.933Z,15.32
2023-01-02T11:17:59.815Z,13.60
2023-01-02T11:22:02.610Z,16.45
2023-01-02T11:26:06.858Z,15.75
2023-01-02T11:30:21.901Z,16.95
2023-01-02T11:34:27.601Z,14.65
2023-01-02T11:38:44.215Z,14.80
2023-01-02T11:43:07.658Z,14.77
2023-01-02T11:47:11.975Z,11.95
2023-01-02T11:51:18.039Z,17.65
2023-01-02T11:55:30.795Z,14.40
2023-01-02T11:59:37.641Z,13.55
2023-01-02T12:03:40.886Z,14.43
2023-01-02T12:07:46.772Z,13.45
2023-01-02T12:12:02.235Z,12.13
2023-01-02T12:16:17.194Z,13.20
2023-01-02T12:20:28.896Z,13.52
2023-01-02T12:24:59.766Z,23.08
2023-01-02T12:29:46.838Z,20.88
2023-01-02T12:33:47.464Z,17.15
2023-01-02T12:37:55.135Z,15.13
2023-01-02T12:42:04.856Z,13.63
2023-01-02T12:46:15.808Z,14.23
2023-01-02T12:50:27.125Z,16.75
2023-01-02T12:55:00.208Z,12.88
2023-01-02T12:59:26.285Z,12.35
2023-01-02T13:03:43.211Z,16.10
2023-01-02T13:07:48.824Z,11.20
2023-01-02T13:12:00.577Z,8.68
2023-01-02T13:16:22.617Z,5.93
2023-01-02T13:20:34.076Z,3.88
2023-01-02T13:24:37.166Z,3.58
2023-01-02T13:28:43.079Z,5.45
2023-01-02T13:32:49.122Z,7.28
2023-01-02T13:36:53.036Z,1.98
2023-01-02T13:40:58.370Z,4.22
2023-01-02T13:45:01.901Z,5.97
2023-01-02T13:49:07.352Z,6.82
2023-01-02T13:53:28.309Z,2.30
2023-01-02T13:57:33.966Z,1.60
2023-01-02T14:02:14.891Z,1.85
2023-01-02T14:06:33.819Z,2.50
2023-01-02T14:10:41.872Z,1.00
2023-01-02T14:14:50.739Z,1.08
2023-01-02T14:19:14.966Z,1.83
2023-01-02T14:23:28.441Z,2.33
2023-01-02T14:27:33.922Z,2.25
2023-01-02T14:31:43.654Z,3.08
2023-01-02T14:35:51.977Z,2.38
2023-01-02T14:39:57.704Z,3.72
2023-01-02T14:44:01.069Z,3.42
2023-01-02T14:48:08.854Z,2.95
2023-01-02T14:52:15.110Z,3.70
2023-01-02T14:56:40.385Z,2.90
2023-01-02T15:00:49.038Z,3.50
2023-01-02T15:04:54.451Z,4.68
2023-01-02T15:09:02.103Z,4.15
2023-01-02T15:13:07.496Z,3.33
2023-01-02T15:17:12.279Z,6.20
2023-01-02T15:21:15.941Z,3.30
2023-01-02T15:25:32.250Z,5.25
2023-01-02T15:33:39.472Z,5.13
2023-01-02T15:37:43.700Z,5.07
2023-01-02T15:41:49.311Z,4.85
2023-01-02T15:45:54.303Z,4.38
2023-01-02T15:49:57.643Z,4.00
2023-01-02T15:54:03.472Z,2.95
2023-01-02T15:58:25.516Z,3.00
2023-01-02T16:02:37.703Z,5.93
2023-01-02T16:06:42.759Z,6.55
2023-01-02T16:10:50.732Z,4.00
2023-01-02T16:14:56.152Z,4.43
2023-01-02T16:19:01.648Z,3.33
2023-01-02T16:23:06.069Z,2.25
2023-01-02T16:27:13.878Z,5.00
2023-01-02T16:31:18.242Z,3.08
2023-01-02T16:35:25.441Z,2.97
2023-01-02T16:39:42.527Z,1.63
2023-01-02T16:43:47.833Z,4.10
2023-01-02T16:47:51.254Z,1.90
2023-01-02T16:51:55.919Z,2.83
2023-01-02T16:55:59.598Z,2.10
2023-01-02T17:00:03.331Z,2.78
2023-01-02T17:04:06.240Z,4.18
2023-01-02T17:08:10.474Z,6.40
2023-01-02T17:12:13.997Z,7.22
2023-01-02T17:16:17.217Z,6.43
2023-01-02T17:20:21.081Z,3.55
2023-01-02T17:24:25.316Z,2.75
2023-01-02T17:28:30.777Z,5.45
2023-01-02T17:32:33.987Z,3.55
2023-01-02T17:36:37.184Z,4.75
2023-01-02T17:40:41.761Z,3.58
2023-01-02T17:44:45.461Z,4.18
2023-01-02T17:48:48.470Z,5.90
2023-01-02T17:52:51.394Z,4.40
2023-01-02T17:56:56.595Z,2.42
2023-01-02T18:01:01.146Z,3.63
2023-01-02T18:05:04.252Z,3.55
2023-01-02T18:09:07.784Z,1.95
2023-01-02T18:13:18.962Z,4.07
2023-01-02T18:17:30.042Z,3.58
2023-01-02T18:21:34.198Z,2.72
2023-01-02T18:25:37.420Z,7.13
2023-01-02T18:29:45.108Z,5.85
2023-01-02T18:33:48.359Z,3.72
2023-01-02T18:37:52.735Z,4.03
2023-01-02T18:41:59.652Z,4.40
2023-01-02T18:46:12.845Z,5.80
2023-01-02T18:50:33.617Z,1.98
2023-01-02T18:54:36.425Z,10.05
2023-01-02T18:58:43.366Z,6.38
2023-01-02T19:02:55.808Z,5.78
2023-01-02T19:07:02.898Z,3.72
2023-01-02T19:11:28.880Z,4.00
2023-01-02T19:15:40.658Z,3.28
2023-01-02T19:19:45.811Z,4.63
2023-01-02T19:23:53.742Z,4.90
2023-01-02T19:27:57.959Z,5.13
2023-01-02T19:32:05.046Z,4.35
2023-01-02T19:36:15.556Z,4.57
2023-01-02T19:40:21.149Z,7.25
2023-01-02T19:44:24.678Z,3.97
2023-01-02T19:48:28.159Z,4.80
2023-01-02T19:52:33.001Z,3.38
2023-01-02T19:56:36.901Z,5.80
2023-01-02T20:04:43.243Z,5.22
2023-01-02T20:08:47.406Z,4.88
2023-01-02T20:12:51.280Z,3.22
2023-01-02T20:16:54.108Z,4.97
2023-01-02T20:20:57.580Z,5.18
2023-01-02T20:25:02.032Z,6.82
2023-01-02T20:29:05.709Z,6.20
2023-01-02T20:33:11.435Z,4.20
2023-01-02T20:37:21.247Z,5.00
2023-01-02T20:41:25.451Z,3.58
2023-01-02T20:45:28.617Z,3.92
2023-01-02T20:49:31.986Z,5.72
2023-01-02T20:53:35.829Z,4.47
2023-01-02T20:57:44.060Z,5.55
2023-01-02T21:01:48.228Z,4.28
2023-01-02T21:05:53.929Z,8.90
2023-01-02T21:09:59.145Z,7.00
2023-01-02T21:14:04.483Z,5.03
2023-01-02T21:18:07.652Z,5.35
2023-01-02T21:22:10.793Z,7.22
2023-01-02T21:26:15.360Z,5.47
2023-01-02T21:30:20.552Z,4.72
2023-01-02T21:34:33.314Z,5.85
2023-01-02T21:38:39.950Z,3.35
2023-01-02T21:42:46.715Z,7.13
2023-01-02T21:46:53.999Z,6.10
2023-01-02T21:51:00.906Z,4.30
2023-01-02T21:55:07.423Z,6.13
2023-01-02T21:59:10.960Z,4.80
2023-01-02T22:03:15.832Z,6.97
2023-01-02T22:07:31.672Z,6.07
2023-01-02T22:11:52.756Z,5.40
2023-01-02T22:15:59.415Z,4.07
2023-01-02T22:20:04.481Z,8.02
2023-01-02T22:24:08.419Z,8.65
2023-01-02T22:32:16.122Z,18.73
2023-01-02T22:36:20.450Z,5.43
2023-01-02T22:40:24.295Z,5.20
2023-01-02T22:44:28.080Z,4.10
2023-01-02T22:48:38.425Z,6.45
2023-01-02T22:52:43.638Z,8.38
2023-01-02T22:56:47.506Z,5.32
2023-01-02T23:00:58.848Z,6.70
2023-01-02T23:05:05.132Z,6.07
2023-01-02T23:09:12.010Z,9.82
2023-01-02T23:13:15.172Z,9.55
2023-01-02T23:17:35.725Z,8.57
2023-01-02T23:21:40.668Z,13.77
2023-01-02T23:25:55.954Z,8.40
2023-01-02T23:29:59.325Z,7.13
2023-01-02T23:34:04.329Z,8.32
2023-01-02T23:38:08.216Z,8.00
2023-01-02T23:42:15.887Z,10.45
2023-01-02T23:46:26.071Z,7.30
2023-01-02T23:54:33.305Z,9.90
2023-01-02T23:58:39.788Z,8.75
